createdAt,value
2023-05-07T00:01:00.507Z,10.81
2023-05-07T00:03:46.312Z,11.71
2023-05-07T00:06:33.519Z,10.95
2023-05-07T00:09:19.035Z,11.67
2023-05-07T00:12:04.511Z,10.80
2023-05-07T00:14:50.007Z,11.57
2023-05-07T00:17:35.462Z,10.95
2023-05-07T00:20:20.736Z,11.74
2023-05-07T00:23:06.185Z,10.85
2023-05-07T00:25:51.496Z,11.72
2023-05-07T00:28:36.972Z,10.66
2023-05-07T00:31:22.498Z,11.55
2023-05-07T00:34:07.949Z,11.44
2023-05-07T00:36:53.363Z,11.44
2023-05-07T00:39:38.564Z,10.75
2023-05-07T00:42:25.084Z,11.42
2023-05-07T00:45:11.763Z,10.29
2023-05-07T00:48:00.750Z,11.65
2023-05-07T00:50:46.826Z,10.55
2023-05-07T00:53:32.703Z,10.42
2023-05-07T00:56:18.229Z,10.41
2023-05-07T00:59:04.329Z,11.64
2023-05-07T01:01:49.795Z,11.51
2023-05-07T01:04:36.229Z,11.62
2023-05-07T01:07:23.760Z,10.06
2023-05-07T01:10:10.195Z,10.57
2023-05-07T01:12:56.336Z,10.48
2023-05-07T01:15:42.175Z,11.46
2023-05-07T01:18:28.060Z,11.24
2023-05-07T01:21:17.671Z,10.47
2023-05-07T01:24:03.747Z,10.52
2023-05-07T01:26:50.825Z,10.72
2023-05-07T01:29:37.244Z,11.44
2023-05-07T01:32:36.895Z,10.35
2023-05-07T01:35:27.990Z,11.63
2023-05-07T01:38:13.749Z,10.18
2023-05-07T01:40:59.391Z,11.46
2023-05-07T01:43:45.740Z,10.39
2023-05-07T01:46:33.156Z,11.45
2023-05-07T01:49:19.658Z,11.44
2023-05-07T01:52:05.078Z,11.41
2023-05-07T01:54:50.532Z,11.41
2023-05-07T01:57:36.410Z,11.40
2023-05-07T02:00:22.398Z,10.57
2023-05-07T02:03:07.960Z,11.15
2023-05-07T02:06:01.344Z,10.57
2023-05-07T02:08:53.341Z,11.37
2023-05-07T02:11:39.256Z,10.30
2023-05-07T02:14:24.531Z,11.03
2023-05-07T02:17:09.908Z,11.30
2023-05-07T02:19:55.199Z,11.12
2023-05-07T02:22:40.667Z,11.07
2023-05-07T02:25:26.032Z,11.25
2023-05-07T02:28:11.238Z,9.87
2023-05-07T02:31:06.934Z,11.11
2023-05-07T02:33:53.249Z,11.12
2023-05-07T02:36:38.675Z,11.27
2023-05-07T02:39:29.548Z,11.19
2023-05-07T02:42:15.342Z,10.20
2023-05-07T02:45:01.202Z,11.22
2023-05-07T02:47:48.051Z,11.25
2023-05-07T02:50:33.612Z,11.23
2023-05-07T02:53:19.604Z,10.07
2023-05-07T02:56:06.812Z,10.15
2023-05-07T02:58:52.432Z,10.77
2023-05-07T03:01:40.424Z,11.14
2023-05-07T03:04:27.809Z,11.15
2023-05-07T03:07:13.688Z,9.86
2023-05-07T03:09:59.188Z,10.08
2023-05-07T03:12:44.671Z,9.83
2023-05-07T03:15:34.556Z,11.05
2023-05-07T03:18:20.542Z,9.74
2023-05-07T03:21:06.283Z,10.97
2023-05-07T03:23:52.178Z,10.01
2023-05-07T03:26:38.056Z,9.82
2023-05-07T03:29:23.292Z,10.81
2023-05-07T03:32:08.751Z,9.82
2023-05-07T03:34:54.050Z,10.61
2023-05-07T03:37:40.864Z,9.67
2023-05-07T03:40:27.781Z,10.47
2023-05-07T03:43:14.529Z,9.25
2023-05-07T03:46:04.914Z,10.58
2023-05-07T03:48:50.380Z,9.73
2023-05-07T03:51:38.375Z,10.68
2023-05-07T03:54:26.488Z,10.01
2023-05-07T03:57:11.813Z,10.62
2023-05-07T03:59:57.257Z,9.24
2023-05-07T04:02:42.766Z,8.21
2023-05-07T04:05:28.629Z,10.48
2023-05-07T04:08:18.774Z,9.81
2023-05-07T04:11:08.186Z,9.87
2023-05-07T04:13:56.235Z,10.57
2023-05-07T04:16:43.065Z,9.36
2023-05-07T04:19:28.415Z,10.57
2023-05-07T04:22:14.402Z,10.30
2023-05-07T04:25:01.342Z,9.73
2023-05-07T04:27:47.073Z,9.28
2023-05-07T04:30:33.080Z,9.51
2023-05-07T04:33:18.532Z,10.53
2023-05-07T04:36:05.799Z,10.13
2023-05-07T04:38:55.820Z,8.68
2023-05-07T04:41:41.294Z,9.87
2023-05-07T04:44:28.726Z,9.31
2023-05-07T04:47:14.320Z,10.43
2023-05-07T04:49:59.948Z,9.82
2023-05-07T04:52:46.272Z,9.07
2023-05-07T04:55:32.019Z,10.04
2023-05-07T04:58:17.480Z,10.28
2023-05-07T05:01:06.132Z,10.25
2023-05-07T05:03:51.480Z,10.21
2023-05-07T05:06:39.507Z,10.02
2023-05-07T05:09:26.053Z,10.26
2023-05-07T05:12:11.467Z,10.22
2023-05-07T05:14:57.894Z,10.20
2023-05-07T05:17:43.516Z,10.16
2023-05-07T05:20:29.550Z,9.80
2023-05-07T05:23:15.248Z,10.11
2023-05-07T05:26:01.171Z,8.79
2023-05-07T05:28:50.469Z,9.00
2023-05-07T05:31:39.281Z,9.29
2023-05-07T05:34:24.536Z,9.26
2023-05-07T05:37:09.883Z,10.05
2023-05-07T05:39:56.558Z,9.70
2023-05-07T05:42:42.558Z,9.60
2023-05-07T05:45:29.471Z,10.06
2023-05-07T05:48:15.548Z,9.72
2023-05-07T05:51:01.369Z,10.19
2023-05-07T05:53:46.961Z,9.11
2023-05-07T05:56:33.277Z,9.97
2023-05-07T05:59:19.082Z,9.34
2023-05-07T06:02:04.923Z,10.57
2023-05-07T06:04:51.539Z,10.78
2023-05-07T06:07:39.273Z,9.35
2023-05-07T06:10:25.505Z,10.50
2023-05-07T06:13:11.343Z,10.65
2023-05-07T06:15:57.487Z,10.49
2023-05-07T06:18:42.965Z,10.16
2023-05-07T06:21:28.810Z,10.44
2023-05-07T06:24:14.338Z,10.40
2023-05-07T06:27:00.455Z,10.41
2023-05-07T06:29:49.458Z,10.38
2023-05-07T06:32:38.227Z,10.37
2023-05-07T06:35:25.181Z,9.15
2023-05-07T06:38:10.523Z,9.06
2023-05-07T06:40:58.151Z,10.34
2023-05-07T06:43:43.971Z,9.63
2023-05-07T06:46:50.158Z,9.32
2023-05-07T06:49:35.989Z,10.14
2023-05-07T06:52:22.168Z,10.48
2023-05-07T06:55:10.207Z,9.99
2023-05-07T06:57:55.968Z,10.00
2023-05-07T07:00:42.909Z,10.22
2023-05-07T07:03:28.268Z,10.57
2023-05-07T07:06:15.570Z,10.60
2023-05-07T07:09:01.686Z,10.63
2023-05-07T07:11:48.973Z,10.64
2023-05-07T07:14:34.266Z,10.16
2023-05-07T07:17:19.708Z,10.28
2023-05-07T07:20:05.619Z,9.74
2023-05-07T07:22:51.457Z,10.24
2023-05-07T07:25:37.275Z,8.50
2023-05-07T07:28:23.530Z,10.51
2023-05-07T07:31:09.054Z,10.25
2023-05-07T07:33:54.628Z,10.23
2023-05-07T07:36:46.224Z,10.25
2023-05-07T07:39:43.538Z,9.61
2023-05-07T07:42:30.923Z,10.12
2023-05-07T07:45:17.800Z,10.11
2023-05-07T07:48:06.691Z,9.46
2023-05-07T07:50:55.497Z,10.49
2023-05-07T07:53:42.469Z,10.66
2023-05-07T07:56:28.465Z,10.87
2023-05-07T07:59:15.982Z,10.93
2023-05-07T08:02:02.125Z,10.94
2023-05-07T08:04:52.291Z,10.36
2023-05-07T08:07:38.992Z,10.94
2023-05-07T08:10:24.328Z,10.70
2023-05-07T08:13:16.225Z,10.40
2023-05-07T08:16:01.965Z,10.85
2023-05-07T08:18:48.575Z,9.61
2023-05-07T08:21:35.896Z,9.46
2023-05-07T08:24:21.895Z,9.50
2023-05-07T08:27:07.600Z,9.41
2023-05-07T08:29:53.807Z,10.69
2023-05-07T08:32:41.995Z,9.42
2023-05-07T08:35:28.251Z,10.54
2023-05-07T08:38:14.372Z,9.49
2023-05-07T08:41:00.393Z,10.76
2023-05-07T08:43:52.467Z,10.76
2023-05-07T08:46:40.998Z,9.39
2023-05-07T08:49:26.477Z,10.43
2023-05-07T08:52:13.268Z,10.79
2023-05-07T08:55:00.147Z,9.96
2023-05-07T08:57:45.763Z,9.61
2023-05-07T09:00:33.118Z,9.55
2023-05-07T09:03:20.443Z,9.54
2023-05-07T09:06:09.152Z,9.71
2023-05-07T09:08:56.136Z,10.94
2023-05-07T09:11:44.874Z,9.60
2023-05-07T09:14:32.474Z,10.65
2023-05-07T09:17:19.536Z,10.95
2023-05-07T09:20:09.314Z,10.94
2023-05-07T09:22:57.414Z,10.08
2023-05-07T09:25:44.052Z,10.63
2023-05-07T09:28:36.767Z,10.86
2023-05-07T09:31:24.792Z,10.93
2023-05-07T09:34:13.293Z,10.89
2023-05-07T09:37:07.290Z,10.00
2023-05-07T09:39:53.864Z,10.89
2023-05-07T09:42:42.450Z,9.60
2023-05-07T09:45:29.183Z,10.31
2023-05-07T09:48:19.472Z,10.60
2023-05-07T09:51:19.224Z,10.82
2023-05-07T09:54:05.784Z,9.65
2023-05-07T09:56:54.239Z,9.32
2023-05-07T09:59:44.922Z,10.58
2023-05-07T10:02:38.088Z,10.54
2023-05-07T10:05:25.050Z,10.45
2023-05-07T10:08:13.404Z,10.53
2023-05-07T10:11:01.056Z,10.57
2023-05-07T10:13:49.064Z,10.44
2023-05-07T10:16:37.813Z,9.12
2023-05-07T10:19:30.423Z,10.47
2023-05-07T10:22:18.239Z,9.82
2023-05-07T10:25:15.305Z,9.07
2023-05-07T10:28:08.979Z,10.32
2023-05-07T10:31:08.844Z,9.29
2023-05-07T10:34:01.781Z,9.14
2023-05-07T10:36:48.415Z,9.98
2023-05-07T10:39:34.147Z,10.26
2023-05-07T10:42:20.358Z,9.79
2023-05-07T10:45:17.767Z,9.72
2023-05-07T10:48:28.872Z,10.25
2023-05-07T10:51:23.024Z,9.79
2023-05-07T10:54:16.624Z,10.29
2023-05-07T10:57:37.081Z,10.36
2023-05-07T11:00:45.862Z,10.42
2023-05-07T11:04:16.309Z,10.48
2023-05-07T11:07:10.790Z,10.50
2023-05-07T11:10:06.499Z,9.48
2023-05-07T11:13:09.816Z,10.54
2023-05-07T11:16:04.573Z,10.20
2023-05-07T11:18:57.564Z,9.64
2023-05-07T11:21:50.874Z,10.42
2023-05-07T11:24:44.324Z,10.42
2023-05-07T11:27:32.216Z,10.47
2023-05-07T11:30:20.726Z,9.88
2023-05-07T11:33:07.328Z,10.17
2023-05-07T11:35:56.133Z,9.08
2023-05-07T11:38:45.469Z,10.52
2023-05-07T11:41:36.142Z,7.99
2023-05-07T11:44:21.529Z,9.48
2023-05-07T11:47:06.872Z,10.53
2023-05-07T11:49:55.093Z,10.23
2023-05-07T11:52:41.111Z,10.46
2023-05-07T11:55:27.325Z,10.46
2023-05-07T11:58:21.539Z,9.81
2023-05-07T12:01:10.718Z,9.08
2023-05-07T12:03:56.123Z,10.28
2023-05-07T12:06:41.589Z,9.76
2023-05-07T12:09:29.192Z,10.53
2023-05-07T12:12:19.468Z,10.20
2023-05-07T12:15:05.141Z,10.15
2023-05-07T12:17:51.667Z,10.43
2023-05-07T12:20:38.437Z,10.55
2023-05-07T12:23:24.584Z,9.20
2023-05-07T12:26:10.510Z,9.42
2023-05-07T12:28:55.992Z,10.01
2023-05-07T12:31:43.102Z,10.09
2023-05-07T12:34:29.257Z,10.58
2023-05-07T12:37:14.882Z,10.44
2023-05-07T12:40:11.170Z,9.25
2023-05-07T12:42:57.349Z,10.52
2023-05-07T12:45:45.198Z,10.58
2023-05-07T12:48:30.855Z,9.59
2023-05-07T12:51:17.050Z,10.13
2023-05-07T12:54:02.615Z,9.03
2023-05-07T12:56:47.924Z,10.41
2023-05-07T12:59:33.771Z,10.51
2023-05-07T13:02:19.160Z,10.54
2023-05-07T13:05:05.040Z,9.37
2023-05-07T13:07:57.977Z,9.26
2023-05-07T13:10:43.938Z,10.58
2023-05-07T13:13:32.375Z,10.61
2023-05-07T13:16:18.283Z,10.58
2023-05-07T13:19:07.244Z,9.63
2023-05-07T13:21:52.573Z,9.26
2023-05-07T13:24:38.031Z,8.94
2023-05-07T13:27:23.537Z,10.54
2023-05-07T13:30:09.090Z,10.54
2023-05-07T13:32:56.862Z,10.43
2023-05-07T13:35:43.682Z,10.53
2023-05-07T13:38:33.437Z,10.55
2023-05-07T13:41:20.243Z,10.56
2023-05-07T13:44:05.742Z,10.24
2023-05-07T13:46:51.239Z,9.02
2023-05-07T13:49:36.754Z,9.21
2023-05-07T13:52:22.496Z,9.46
2023-05-07T13:55:08.343Z,9.39
2023-05-07T13:57:58.672Z,10.17
2023-05-07T14:00:44.915Z,9.77
2023-05-07T14:03:33.068Z,10.51
2023-05-07T14:06:18.970Z,10.29
2023-05-07T14:09:05.183Z,10.33
2023-05-07T14:11:52.319Z,10.52
2023-05-07T14:14:37.863Z,10.50
2023-05-07T14:17:26.334Z,9.65
2023-05-07T14:20:13.179Z,10.32
2023-05-07T14:22:59.245Z,10.70
2023-05-07T14:25:44.672Z,9.73
2023-05-07T14:28:30.107Z,9.35
2023-05-07T14:31:15.703Z,10.61
2023-05-07T14:34:03.319Z,9.62
2023-05-07T14:36:48.942Z,9.60
2023-05-07T14:39:34.389Z,7.42
2023-05-07T14:42:20.462Z,9.37
2023-05-07T14:45:07.055Z,9.33
2023-05-07T14:47:52.617Z,10.59
2023-05-07T14:50:37.841Z,9.36
2023-05-07T14:53:23.746Z,9.39
2023-05-07T14:56:09.551Z,9.31
2023-05-07T14:58:55.094Z,10.57
2023-05-07T15:01:43.647Z,10.67
2023-05-07T15:04:28.852Z,9.28
2023-05-07T15:07:18.574Z,9.38
2023-05-07T15:10:04.353Z,10.48
2023-05-07T15:12:49.903Z,9.70
2023-05-07T15:15:35.568Z,10.56
2023-05-07T15:18:22.853Z,10.82
2023-05-07T15:21:08.515Z,9.55
2023-05-07T15:23:54.940Z,9.56
2023-05-07T15:26:40.410Z,10.69
2023-05-07T15:29:26.061Z,10.39
2023-05-07T15:32:12.156Z,9.59
2023-05-07T15:34:57.979Z,10.34
2023-05-07T15:37:43.526Z,9.81
2023-05-07T15:40:29.459Z,10.64
2023-05-07T15:43:14.981Z,10.34
2023-05-07T15:46:01.378Z,9.47
2023-05-07T15:48:48.206Z,10.21
2023-05-07T15:51:35.950Z,10.26
2023-05-07T15:54:21.371Z,10.41
2023-05-07T15:57:10.222Z,10.60
2023-05-07T15:59:55.589Z,10.42
2023-05-07T16:02:41.021Z,9.91
2023-05-07T16:05:26.858Z,10.48
2023-05-07T16:08:12.044Z,10.14
2023-05-07T16:10:57.589Z,9.29
2023-05-07T16:13:42.840Z,10.31
2023-05-07T16:16:30.178Z,9.80
2023-05-07T16:19:15.921Z,10.27
2023-05-07T16:22:01.263Z,9.00
2023-05-07T16:24:46.820Z,10.30
2023-05-07T16:27:32.270Z,9.46
2023-05-07T16:30:17.759Z,10.07
2023-05-07T16:33:03.477Z,9.79
2023-05-07T16:35:53.240Z,9.98
2023-05-07T16:38:38.727Z,8.81
2023-05-07T16:41:24.556Z,9.99
2023-05-07T16:44:10.137Z,8.97
2023-05-07T16:46:55.581Z,8.66
2023-05-07T16:49:40.901Z,9.69
2023-05-07T16:52:30.208Z,9.21
2023-05-07T16:55:15.936Z,8.79
2023-05-07T16:58:01.642Z,8.98
2023-05-07T17:00:50.475Z,10.00
2023-05-07T17:03:36.535Z,8.82
2023-05-07T17:06:21.771Z,10.04
2023-05-07T17:09:07.235Z,10.03
2023-05-07T17:11:52.672Z,10.03
2023-05-07T17:14:38.019Z,8.83
2023-05-07T17:17:23.433Z,8.73
2023-05-07T17:20:09.253Z,8.76
2023-05-07T17:22:55.645Z,8.60
2023-05-07T17:25:45.432Z,9.84
2023-05-07T17:28:31.127Z,9.65
2023-05-07T17:31:17.486Z,9.60
2023-05-07T17:34:03.278Z,9.40
2023-05-07T17:36:48.909Z,8.43
2023-05-07T17:39:34.390Z,8.82
2023-05-07T17:42:21.446Z,8.70
2023-05-07T17:45:07.239Z,8.59
2023-05-07T17:47:52.754Z,8.77
2023-05-07T17:50:38.238Z,8.65
2023-05-07T17:53:24.705Z,8.60
2023-05-07T17:56:10.263Z,7.90
2023-05-07T17:58:59.021Z,7.17
2023-05-07T18:01:44.960Z,8.13
2023-05-07T18:04:30.351Z,8.27
2023-05-07T18:07:16.423Z,6.93
2023-05-07T18:10:02.425Z,6.89
2023-05-07T18:12:49.203Z,7.94
2023-05-07T18:15:34.914Z,7.13
2023-05-07T18:18:20.676Z,7.64
2023-05-07T18:21:06.372Z,8.04
2023-05-07T18:23:51.621Z,8.06
2023-05-07T18:26:37.910Z,7.76
2023-05-07T18:29:24.396Z,7.85
2023-05-07T18:32:10.663Z,8.00
2023-05-07T18:34:56.385Z,6.63
2023-05-07T18:37:41.769Z,7.95
2023-05-07T18:40:27.508Z,7.66
2023-05-07T18:43:13.217Z,6.59
2023-05-07T18:45:58.734Z,7.59
2023-05-07T18:48:44.705Z,7.53
2023-05-07T18:51:30.213Z,6.48
2023-05-07T18:54:16.433Z,7.71
2023-05-07T18:57:02.163Z,7.65
2023-05-07T18:59:47.566Z,6.60
2023-05-07T19:02:33.608Z,7.46
2023-05-07T19:05:19.896Z,6.39
2023-05-07T19:08:06.333Z,7.39
2023-05-07T19:10:51.938Z,5.97
2023-05-07T19:13:37.432Z,7.31
2023-05-07T19:16:23.168Z,6.80
2023-05-07T19:19:08.478Z,6.19
2023-05-07T19:21:54.086Z,6.93
2023-05-07T19:24:40.956Z,6.78
2023-05-07T19:27:26.434Z,7.08
2023-05-07T19:30:12.528Z,6.82
2023-05-07T19:33:01.687Z,7.12
2023-05-07T19:35:47.411Z,6.00
2023-05-07T19:38:33.801Z,7.11
2023-05-07T19:41:20.941Z,6.83
2023-05-07T19:44:06.427Z,7.12
2023-05-07T19:46:52.697Z,6.97
2023-05-07T19:49:38.421Z,6.05
2023-05-07T19:52:24.037Z,5.66
2023-05-07T19:55:10.366Z,6.71
2023-05-07T19:57:56.029Z,6.77
2023-05-07T20:00:43.176Z,6.91
2023-05-07T20:03:30.656Z,6.28
2023-05-07T20:06:16.483Z,6.98
2023-05-07T20:09:01.784Z,6.62
2023-05-07T20:11:47.117Z,6.39
2023-05-07T20:14:32.762Z,6.51
2023-05-07T20:17:19.707Z,6.79
2023-05-07T20:20:05.862Z,6.74
2023-05-07T20:22:51.131Z,6.69
2023-05-07T20:25:36.945Z,6.69
2023-05-07T20:28:22.224Z,4.19
2023-05-07T20:31:07.589Z,5.96
2023-05-07T20:33:53.112Z,5.19
2023-05-07T20:36:38.772Z,6.39
2023-05-07T20:39:24.716Z,5.02
2023-05-07T20:42:10.244Z,5.02
2023-05-07T20:44:56.244Z,5.87
2023-05-07T20:47:42.275Z,5.05
2023-05-07T20:50:27.889Z,6.10
2023-05-07T20:53:13.366Z,6.34
2023-05-07T20:55:59.446Z,5.34
2023-05-07T20:58:45.149Z,6.31
2023-05-07T21:01:30.639Z,5.13
2023-05-07T21:04:16.091Z,5.42
2023-05-07T21:07:01.727Z,5.95
2023-05-07T21:09:47.148Z,6.20
2023-05-07T21:12:32.743Z,6.34
2023-05-07T21:15:18.254Z,6.31
2023-05-07T21:18:03.895Z,6.24
2023-05-07T21:20:49.293Z,4.98
2023-05-07T21:23:34.565Z,6.18
2023-05-07T21:26:21.865Z,5.73
2023-05-07T21:29:08.936Z,5.08
2023-05-07T21:31:54.425Z,6.13
2023-05-07T21:34:39.735Z,6.00
2023-05-07T21:37:25.027Z,6.04
2023-05-07T21:40:10.981Z,5.92
2023-05-07T21:42:56.601Z,5.25
2023-05-07T21:45:42.000Z,4.74
2023-05-07T21:48:27.361Z,4.82
2023-05-07T21:51:13.378Z,4.85
2023-05-07T21:53:58.912Z,5.87
2023-05-07T21:56:44.408Z,5.90
2023-05-07T21:59:29.778Z,5.80
2023-05-07T22:02:15.059Z,5.42
2023-05-07T22:05:00.581Z,5.78
2023-05-07T22:07:46.051Z,5.00
2023-05-07T22:10:31.833Z,4.53
2023-05-07T22:13:17.393Z,4.60
2023-05-07T22:16:02.661Z,5.81
2023-05-07T22:18:49.603Z,5.80
2023-05-07T22:21:35.599Z,5.51
2023-05-07T22:24:20.889Z,5.69
2023-05-07T22:27:06.189Z,5.80
2023-05-07T22:29:51.579Z,5.62
2023-05-07T22:32:37.343Z,4.93
2023-05-07T22:35:23.796Z,4.89
2023-05-07T22:38:09.664Z,4.48
2023-05-07T22:40:54.915Z,5.21
2023-05-07T22:43:40.289Z,5.86
2023-05-07T22:46:26.166Z,4.58
2023-05-07T22:49:11.430Z,5.07
2023-05-07T22:51:56.817Z,5.95
2023-05-07T22:54:42.032Z,4.64
2023-05-07T22:57:27.450Z,4.81
2023-05-07T23:00:13.809Z,5.64
2023-05-07T23:02:59.906Z,6.01
2023-05-07T23:05:45.541Z,5.78
2023-05-07T23:08:30.915Z,5.51
2023-05-07T23:11:16.493Z,5.81
2023-05-07T23:14:01.664Z,5.50
2023-05-07T23:16:47.032Z,4.38
2023-05-07T23:19:32.963Z,5.36
2023-05-07T23:22:18.376Z,5.66
2023-05-07T23:25:04.692Z,4.58
2023-05-07T23:27:50.323Z,4.19
2023-05-07T23:30:35.900Z,5.42
2023-05-07T23:33:21.316Z,4.74
2023-05-07T23:36:07.962Z,4.08
2023-05-07T23:38:53.608Z,5.50
2023-05-07T23:41:38.956Z,4.53
2023-05-07T23:44:24.494Z,4.24
2023-05-07T23:47:09.877Z,4.22
2023-05-07T23:49:55.114Z,4.48
2023-05-07T23:52:40.488Z,4.44
2023-05-07T23:55:25.709Z,4.23
2023-05-07T23:58:12.097Z,5.02
